Time;durP1;ratioP1;P1;durP2;ratioP2;P2;SDS_P1;SDS_P2;PMS_P1;PMS_P2;Temp;Humidity;BMP_temperature;BMP_pressure;BME280_temperature;BME280_humidity;BME280_pressure;Samples;Min_cycle;Max_cycle;Signal;HPM_P1;HPM_P2
2024/02/22 00:02:14;;;;;;;42.70;24.70;;;;;;;-2.61;63.59;100191.41;5050003;28;20064;-74
2024/02/22 00:04:39;;;;;;;43.47;23.58;;;;;;;-2.69;63.80;100191.56;5050663;28;20091;-74
2024/02/22 00:07:05;;;;;;;42.85;24.63;;;;;;;-2.60;63.54;100198.38;5051451;28;20376;-74
2024/02/22 00:09:31;;;;;;;44.88;24.85;;;;;;;-2.63;63.45;100167.81;5049074;28;20037;-72
2024/02/22 00:11:57;;;;;;;42.25;23.50;;;;;;;-2.52;64.02;100185.94;5049091;28;20093;-73
2024/02/22 00:14:22;;;;;;;44.92;24.58;;;;;;;-2.52;63.64;100175.47;5049878;27;20033;-71
2024/02/22 00:16:49;;;;;;;42.67;23.08;;;;;;;-2.53;63.49;100176.38;5049944;28;20394;-72
2024/02/22 00:19:14;;;;;;;50.53;24.10;;;;;;;-2.45;63.16;100190.16;5047453;28;20021;-71
2024/02/22 00:21:40;;;;;;;44.25;23.77;;;;;;;-2.53;63.18;100178.97;5050674;28;20467;-70
2024/02/22 00:24:05;;;;;;;45.42;24.25;;;;;;;-2.55;63.50;100183.41;5049517;28;20029;-72
2024/02/22 00:26:31;;;;;;;41.90;23.50;;;;;;;-2.57;63.64;100174.72;5050432;28;20037;-68
2024/02/22 00:28:56;;;;;;;45.63;24.40;;;;;;;-2.84;63.59;100135.06;5050000;28;20073;-65
2024/02/22 00:31:22;;;;;;;43.75;24.42;;;;;;;-2.86;64.15;100133.34;5050019;28;20103;-71
2024/02/22 00:33:48;;;;;;;44.92;24.52;;;;;;;-2.50;63.65;100188.56;5037790;28;20105;-71
2024/02/22 00:36:13;;;;;;;47.78;24.15;;;;;;;-2.55;63.84;100188.66;5048516;28;20102;-71
2024/02/22 00:38:39;;;;;;;43.75;23.90;;;;;;;-2.59;64.10;100171.25;5050418;28;20136;-72
2024/02/22 00:41:04;;;;;;;44.90;23.52;;;;;;;-2.52;63.64;100188.56;5049888;28;20474;-71
2024/02/22 00:43:30;;;;;;;43.80;23.50;;;;;;;-2.51;64.08;100189.44;5050130;28;20101;-61
2024/02/22 00:45:56;;;;;;;44.88;24.45;;;;;;;-2.42;63.10;100191.00;5050381;28;20086;-71
2024/02/22 00:48:21;;;;;;;46.20;24.02;;;;;;;-2.51;63.50;100198.16;5049963;28;20032;-69
2024/02/22 00:50:47;;;;;;;47.05;25.10;;;;;;;-2.48;64.06;100195.47;5050215;28;20147;-68
2024/02/22 00:53:13;;;;;;;45.88;25.15;;;;;;;-2.51;63.42;100185.06;5050077;28;20108;-73
2024/02/22 00:55:39;;;;;;;44.95;24.23;;;;;;;-2.44;63.26;100175.31;5049514;28;20040;-73
2024/02/22 00:58:04;;;;;;;46.30;24.90;;;;;;;-2.82;63.44;100119.28;5049352;28;20061;-69
2024/02/22 01:00:30;;;;;;;43.53;22.98;;;;;;;-2.56;64.42;100168.56;5050156;28;20527;-65
2024/02/22 01:02:56;;;;;;;46.10;24.02;;;;;;;-2.49;63.74;100180.63;5049221;27;20150;-74
2024/02/22 01:05:21;;;;;;;42.75;24.27;;;;;;;-2.46;63.77;100175.34;5049698;28;20037;-73
2024/02/22 01:07:47;;;;;;;45.10;25.05;;;;;;;-2.52;63.53;100166.75;5050012;28;20111;-72
2024/02/22 01:10:12;;;;;;;49.38;25.05;;;;;;;-2.48;63.85;100168.41;5049474;28;20056;-74
2024/02/22 01:12:38;;;;;;;44.28;24.42;;;;;;;-2.50;63.64;100155.31;5048497;28;20037;-67
2024/02/22 01:15:06;;;;;;;44.30;23.63;;;;;;;-2.41;63.86;100174.38;5048638;28;20052;-72
2024/02/22 01:17:31;;;;;;;46.95;24.60;;;;;;;-2.42;63.50;100167.41;5049190;28;20033;-71
2024/02/22 01:19:57;;;;;;;41.72;23.83;;;;;;;-2.39;63.47;100172.59;5050701;27;20398;-73
2024/02/22 01:22:23;;;;;;;49.33;25.20;;;;;;;-2.41;63.52;100170.00;5049170;28;20120;-72
2024/02/22 01:24:48;;;;;;;44.70;25.35;;;;;;;-2.36;63.92;100167.28;5049606;28;20029;-74
2024/02/22 01:27:14;;;;;;;42.28;23.90;;;;;;;-2.65;63.06;100105.84;5049521;28;20036;-74
2024/02/22 01:29:42;;;;;;;43.25;24.48;;;;;;;-2.43;64.13;100157.81;5048871;28;20025;-73
2024/02/22 01:32:08;;;;;;;42.33;22.52;;;;;;;-2.46;63.87;100146.47;5049214;28;20033;-72
2024/02/22 01:34:34;;;;;;;44.10;24.88;;;;;;;-2.29;63.34;100153.13;5042414;28;20029;-76
2024/02/22 01:37:00;;;;;;;46.80;24.73;;;;;;;-2.41;63.67;100141.16;5049290;28;20036;-68
2024/02/22 01:39:25;;;;;;;43.42;25.02;;;;;;;-2.46;64.07;100151.72;5048250;28;20025;-66
2024/02/22 01:41:51;;;;;;;41.60;23.45;;;;;;;-2.47;63.12;100129.03;5049377;28;20360;-68
2024/02/22 01:44:16;;;;;;;45.38;24.45;;;;;;;-2.40;63.87;100136.78;5048856;28;20048;-69
2024/02/22 01:46:42;;;;;;;47.45;24.10;;;;;;;-2.39;63.44;100138.50;5049363;28;20310;-60
2024/02/22 01:49:08;;;;;;;40.72;22.25;;;;;;;-2.38;63.58;100137.63;5044805;28;20072;-72
2024/02/22 01:51:34;;;;;;;44.90;23.95;;;;;;;-2.74;64.04;100084.19;5029296;28;20049;-71
2024/02/22 01:54:00;;;;;;;46.00;24.73;;;;;;;-2.58;63.31;100098.69;5038405;28;20047;-68
2024/02/22 01:56:27;;;;;;;43.20;23.85;;;;;;;-2.28;63.29;100130.41;5048836;28;20033;-70
2024/02/22 01:58:53;;;;;;;43.35;24.27;;;;;;;-2.36;63.34;100143.69;5045278;28;20039;-72
2024/02/22 02:01:22;;;;;;;45.60;23.55;;;;;;;-2.32;63.08;100130.44;5048676;28;20032;-69
2024/02/22 02:03:51;;;;;;;44.13;25.15;;;;;;;-2.29;63.71;100124.28;5048923;28;20116;-71
2024/02/22 02:06:17;;;;;;;40.22;22.90;;;;;;;-2.33;63.43;100133.13;5049142;28;20028;-69
2024/02/22 02:08:43;;;;;;;45.95;24.10;;;;;;;-2.33;62.74;100115.59;5048191;28;20074;-71
2024/02/22 02:11:09;;;;;;;44.17;23.67;;;;;;;-2.28;63.25;100112.03;5048620;28;20041;-69
2024/02/22 02:13:35;;;;;;;41.28;23.27;;;;;;;-2.38;63.09;100116.63;5047352;28;20028;-68
2024/02/22 02:16:01;;;;;;;44.60;23.95;;;;;;;-2.37;63.41;100102.63;5048928;28;20113;-60
2024/02/22 02:18:27;;;;;;;39.45;21.80;;;;;;;-2.32;63.07;100121.72;5048117;28;20059;-69
2024/02/22 02:21:03;;;;;;;45.90;24.77;;;;;;;-2.35;63.22;100106.91;5047714;28;20036;-69
2024/02/22 02:23:45;;;;;;;44.53;23.38;;;;;;;-2.35;62.99;100098.19;5049013;28;20037;-70
2024/02/22 02:26:11;;;;;;;44.67;23.80;;;;;;;-2.40;62.97;100098.28;5048383;28;20036;-69
2024/02/22 02:28:37;;;;;;;43.78;24.00;;;;;;;-2.50;63.16;100088.94;5042558;28;20029;-68
2024/02/22 02:31:03;;;;;;;43.65;24.80;;;;;;;-2.74;63.53;100049.25;5048577;28;20040;-69
2024/02/22 02:33:28;;;;;;;45.20;24.05;;;;;;;-2.36;63.39;100086.00;5048089;28;20025;-70
2024/02/22 02:35:54;;;;;;;41.40;23.60;;;;;;;-2.50;63.38;100087.16;5048138;28;20032;-68
2024/02/22 02:38:19;;;;;;;43.42;23.48;;;;;;;-2.41;63.50;100095.69;5047986;28;20229;-67
2024/02/22 02:40:45;;;;;;;41.03;22.35;;;;;;;-2.45;63.17;100084.44;5046456;28;20036;-63
2024/02/22 02:43:10;;;;;;;43.95;24.13;;;;;;;-2.54;63.91;100067.16;5048262;28;20063;-70
2024/02/22 02:45:36;;;;;;;40.55;22.88;;;;;;;-2.43;63.36;100085.25;5047244;28;20055;-68
2024/02/22 02:48:01;;;;;;;50.30;24.63;;;;;;;-2.51;63.02;100055.75;5047929;28;20039;-63
2024/02/22 02:50:27;;;;;;;45.83;23.80;;;;;;;-2.45;63.36;100072.16;5048032;28;20029;-73
2024/02/22 02:52:53;;;;;;;49.80;24.70;;;;;;;-2.38;63.39;100082.53;5048264;28;20120;-68
2024/02/22 02:55:20;;;;;;;39.45;22.98;;;;;;;-2.37;63.54;100079.88;5048255;28;20029;-66
2024/02/22 02:57:46;;;;;;;45.58;23.75;;;;;;;-2.38;63.23;100086.00;5046510;28;20452;-65
2024/02/22 03:00:13;;;;;;;42.95;23.75;;;;;;;-2.32;63.50;100085.84;5047832;28;20037;-70
2024/02/22 03:02:40;;;;;;;48.75;25.27;;;;;;;-2.26;62.66;100074.38;5047546;28;20077;-67
2024/02/22 03:05:07;;;;;;;44.60;24.27;;;;;;;-2.36;63.05;100078.97;5047573;27;20060;-67
2024/02/22 03:07:33;;;;;;;46.45;24.33;;;;;;;-2.40;63.25;100093.06;5047682;28;20056;-66
2024/02/22 03:09:59;;;;;;;48.60;25.52;;;;;;;-2.43;63.51;100089.63;5048403;28;20356;-72
2024/02/22 03:12:24;;;;;;;50.53;24.60;;;;;;;-2.46;63.40;100091.41;5048386;28;20037;-74
2024/02/22 03:14:50;;;;;;;44.30;22.65;;;;;;;-2.44;63.36;100080.91;5043627;28;20044;-73
2024/02/22 03:17:23;;;;;;;48.20;25.20;;;;;;;-2.30;63.28;100091.09;5047115;28;20029;-72
2024/02/22 03:19:49;;;;;;;49.03;25.23;;;;;;;-2.38;62.53;100106.13;5044862;28;20029;-69
2024/02/22 03:22:14;;;;;;;46.65;23.75;;;;;;;-2.48;63.55;100087.13;5047744;28;20437;-72
2024/02/22 03:24:40;;;;;;;51.15;25.80;;;;;;;-2.54;64.15;100106.47;5047597;28;20046;-71
2024/02/22 03:27:10;;;;;;;48.22;24.77;;;;;;;-2.47;63.93;100089.69;5047687;28;20037;-70
2024/02/22 03:29:39;;;;;;;45.75;24.83;;;;;;;-2.42;63.92;100091.34;5047650;28;20090;-71
2024/02/22 03:32:05;;;;;;;47.67;24.77;;;;;;;-2.45;63.89;100085.28;5047473;28;20378;-71
2024/02/22 03:34:32;;;;;;;53.95;24.92;;;;;;;-2.34;63.34;100092.06;5046820;28;20036;-66
2024/02/22 03:36:58;;;;;;;48.15;26.17;;;;;;;-2.42;63.78;100099.22;5049952;28;20036;-71
2024/02/22 03:39:23;;;;;;;54.08;26.88;;;;;;;-2.36;63.79;100109.59;5050967;28;20029;-72
2024/02/22 03:41:49;;;;;;;49.20;25.23;;;;;;;-2.36;63.51;100093.84;5051063;28;20043;-72
2024/02/22 03:44:15;;;;;;;49.90;25.50;;;;;;;-2.37;63.12;100105.25;5050782;28;20338;-69
2024/02/22 03:46:48;;;;;;;48.53;25.52;;;;;;;-2.27;63.57;100122.47;5050443;28;20078;-71
2024/02/22 03:49:13;;;;;;;47.53;25.17;;;;;;;-2.37;62.98;100107.88;5051001;28;20119;-72
2024/02/22 03:51:40;;;;;;;52.22;26.15;;;;;;;-2.33;63.51;100114.75;5050794;28;20135;-72
2024/02/22 03:54:05;;;;;;;49.30;25.38;;;;;;;-2.35;62.86;100117.41;5050362;28;20037;-71
2024/02/22 03:56:35;;;;;;;49.45;26.85;;;;;;;-2.36;63.45;100135.81;5050553;28;20421;-57
2024/02/22 03:59:01;;;;;;;51.47;25.77;;;;;;;-2.41;63.58;100106.19;5050775;28;20853;-59
2024/02/22 04:01:27;;;;;;;55.83;27.00;;;;;;;-2.46;64.04;100120.25;5050810;28;20441;-68
2024/02/22 04:03:54;;;;;;;52.45;25.58;;;;;;;-2.35;64.28;100121.81;5049988;28;20114;-66
2024/02/22 04:06:20;;;;;;;49.25;25.33;;;;;;;-2.30;63.84;100127.81;5049849;27;20169;-71
2024/02/22 04:08:46;;;;;;;52.45;24.85;;;;;;;-2.41;63.94;100096.56;5050567;28;20104;-68
2024/02/22 04:11:12;;;;;;;49.05;26.27;;;;;;;-2.15;63.42;100123.97;5050965;28;20437;-70
2024/02/22 04:13:39;;;;;;;49.63;24.50;;;;;;;-2.17;63.50;100120.50;5050548;28;20468;-69
2024/02/22 04:16:06;;;;;;;63.67;28.23;;;;;;;-2.56;63.25;100062.81;5050214;28;20044;-69
2024/02/22 04:18:31;;;;;;;47.40;25.58;;;;;;;-2.24;62.84;100104.03;5049982;28;20033;-60
2024/02/22 04:20:57;;;;;;;52.15;27.13;;;;;;;-2.51;63.44;100076.72;5051123;28;20079;-71
2024/02/22 04:23:22;;;;;;;50.20;26.05;;;;;;;-2.53;63.19;100060.13;5049982;28;20056;-69
2024/02/22 04:25:48;;;;;;;54.40;26.95;;;;;;;-2.23;63.79;100111.00;5049621;28;20037;-69
2024/02/22 04:28:18;;;;;;;56.25;27.33;;;;;;;-2.15;63.29;100112.63;5050105;28;20036;-71
2024/02/22 04:30:47;;;;;;;57.90;28.38;;;;;;;-2.21;63.44;100130.19;5047670;28;20112;-71
2024/02/22 04:33:13;;;;;;;50.55;26.67;;;;;;;-2.54;63.59;100054.03;5045611;28;20089;-71
2024/02/22 04:35:42;;;;;;;51.30;26.92;;;;;;;-2.45;63.35;100063.47;5049297;28;20471;-71
2024/02/22 04:38:11;;;;;;;54.63;26.42;;;;;;;-2.12;63.86;100112.53;5049997;28;20365;-71
2024/02/22 04:40:37;;;;;;;54.38;26.92;;;;;;;-2.02;63.37;100111.41;5030307;28;20034;-71
2024/02/22 04:43:03;;;;;;;54.13;27.85;;;;;;;-2.04;63.44;100124.59;5049939;28;20044;-69
2024/02/22 04:45:30;;;;;;;52.47;26.50;;;;;;;-2.02;63.44;100114.91;5050369;28;20044;-72
2024/02/22 04:48:03;;;;;;;55.03;28.00;;;;;;;-1.94;63.05;100111.22;5048567;28;20025;-71
2024/02/22 04:50:30;;;;;;;49.55;25.77;;;;;;;-1.92;62.92;100126.06;5051222;28;20060;-72
2024/02/22 04:52:56;;;;;;;55.47;27.67;;;;;;;-1.86;62.83;100130.25;5050615;28;20403;-70
2024/02/22 04:55:22;;;;;;;54.33;26.77;;;;;;;-1.85;62.09;100118.03;5050063;28;20037;-71
2024/02/22 04:57:48;;;;;;;56.35;28.52;;;;;;;-1.98;62.34;100120.94;5050083;28;20077;-72
2024/02/22 05:00:15;;;;;;;48.45;23.85;;;;;;;-1.97;62.60;100112.16;5048741;28;20404;-72
2024/02/22 05:02:40;;;;;;;56.40;28.50;;;;;;;-2.22;62.06;100069.94;5046789;28;20060;-72
2024/02/22 05:05:06;;;;;;;58.58;28.95;;;;;;;-2.08;62.74;100108.94;5029417;28;20079;-72
2024/02/22 05:07:33;;;;;;;55.90;27.08;;;;;;;-2.10;63.33;100119.47;5035021;28;20108;-71
2024/02/22 05:09:59;;;;;;;57.22;28.05;;;;;;;-2.06;62.85;100113.22;5049573;28;20456;-71
2024/02/22 05:12:25;;;;;;;54.53;25.52;;;;;;;-2.05;63.05;100116.75;5049710;28;20112;-72
2024/02/22 05:14:50;;;;;;;51.90;26.60;;;;;;;-2.07;63.35;100126.41;5049747;28;20120;-72
2024/02/22 05:17:17;;;;;;;55.75;27.92;;;;;;;-2.06;63.01;100126.34;5048690;28;20028;-70
2024/02/22 05:19:42;;;;;;;55.13;27.30;;;;;;;-2.10;62.44;100111.59;5047815;28;20053;-71
2024/02/22 05:22:08;;;;;;;55.58;27.08;;;;;;;-2.12;63.30;100107.28;5049746;28;20037;-71
2024/02/22 05:24:34;;;;;;;53.25;27.17;;;;;;;-2.13;63.18;100090.69;5049564;28;20033;-70
2024/02/22 05:27:00;;;;;;;55.38;27.02;;;;;;;-1.99;63.47;100116.59;5049539;28;20043;-69
2024/02/22 05:29:25;;;;;;;60.15;29.42;;;;;;;-1.94;63.04;100111.22;5049190;28;20124;-70
2024/02/22 05:31:56;;;;;;;61.70;28.08;;;;;;;-1.93;62.72;100113.84;5049091;28;20033;-70
2024/02/22 05:34:23;;;;;;;59.40;28.60;;;;;;;-2.18;62.03;100058.44;5048103;28;20037;-71
2024/02/22 05:36:48;;;;;;;58.65;28.23;;;;;;;-1.96;62.74;100120.91;5048983;28;20092;-66
2024/02/22 05:39:14;;;;;;;59.08;27.55;;;;;;;-1.97;62.71;100127.91;5049086;28;20116;-75
2024/02/22 05:41:39;;;;;;;55.42;27.73;;;;;;;-1.96;62.64;100121.75;5049228;28;20037;-72
2024/02/22 05:44:05;;;;;;;53.42;27.17;;;;;;;-1.93;62.57;100126.94;5037740;28;20029;-72
2024/02/22 05:46:30;;;;;;;55.45;26.27;;;;;;;-1.94;62.52;100106.81;5049614;28;20028;-61
2024/02/22 05:48:56;;;;;;;54.38;28.30;;;;;;;-1.93;62.83;100123.44;5048829;28;20119;-71
2024/02/22 05:51:22;;;;;;;59.63;28.40;;;;;;;-1.93;62.26;100113.84;5049227;28;20461;-67
2024/02/22 05:53:48;;;;;;;54.65;26.52;;;;;;;-1.87;62.61;100133.78;5048535;28;20373;-70
2024/02/22 05:56:14;;;;;;;58.67;26.73;;;;;;;-1.90;62.25;100134.75;5049198;28;20037;-69
2024/02/22 05:58:40;;;;;;;60.00;28.73;;;;;;;-1.84;62.47;100119.75;5048410;28;20407;-67
2024/02/22 06:01:06;;;;;;;57.30;27.98;;;;;;;-2.22;62.38;100060.28;5048538;28;20120;-69
2024/02/22 06:03:32;;;;;;;57.20;27.75;;;;;;;-1.81;61.91;100117.03;5040364;28;20061;-69
2024/02/22 06:05:57;;;;;;;54.47;27.70;;;;;;;-1.80;62.40;100124.00;5030000;28;20102;-69
2024/02/22 06:08:23;;;;;;;60.70;28.38;;;;;;;-1.77;62.23;100140.56;5043408;28;20033;-70
2024/02/22 06:10:49;;;;;;;58.78;25.60;;;;;;;-1.66;61.57;100137.66;5048062;28;20484;-69
2024/02/22 06:13:15;;;;;;;52.72;26.13;;;;;;;-1.61;61.34;100127.91;5048375;28;20025;-69
2024/02/22 06:15:40;;;;;;;60.28;27.70;;;;;;;-1.69;61.80;100119.34;5048554;28;20382;-74
2024/02/22 06:18:06;;;;;;;54.85;27.55;;;;;;;-1.67;61.82;100120.19;5047674;28;20064;-71
2024/02/22 06:20:31;;;;;;;55.58;28.08;;;;;;;-1.63;61.91;100124.47;5047506;28;20476;-68
2024/02/22 06:22:59;;;;;;;60.72;28.45;;;;;;;-1.67;61.32;100116.69;5034667;28;20104;-67
2024/02/22 06:25:28;;;;;;;58.92;27.42;;;;;;;-1.64;61.41;100124.47;5038527;28;20056;-70
2024/02/22 06:27:53;;;;;;;57.40;27.45;;;;;;;-1.57;61.43;100136.53;5049344;28;20383;-74
2024/02/22 06:30:19;;;;;;;58.55;27.88;;;;;;;-1.60;61.61;100127.00;5048760;28;20093;-74
2024/02/22 06:32:45;;;;;;;57.63;28.48;;;;;;;-1.61;61.81;100124.41;5048658;28;20043;-66
2024/02/22 06:35:11;;;;;;;57.13;27.83;;;;;;;-1.57;62.00;100133.06;5048848;28;20031;-74
2024/02/22 06:37:36;;;;;;;58.33;27.98;;;;;;;-1.50;61.61;100124.13;5047866;28;20431;-75
2024/02/22 06:40:07;;;;;;;58.92;27.58;;;;;;;-1.82;61.16;100066.28;5047507;28;20028;-68
2024/02/22 06:42:35;;;;;;;52.72;28.23;;;;;;;-1.53;61.52;100126.84;5048630;28;20104;-72
2024/02/22 06:45:01;;;;;;;68.57;30.30;;;;;;;-1.50;61.98;100124.13;5048349;28;20026;-61
2024/02/22 06:47:28;;;;;;;52.83;25.90;;;;;;;-1.41;60.94;100126.53;5048180;28;20355;-72
2024/02/22 06:49:54;;;;;;;61.45;27.45;;;;;;;-1.54;61.75;100130.38;5047652;28;20029;-69
2024/02/22 06:52:20;;;;;;;58.80;28.17;;;;;;;-1.54;61.50;100130.38;5045901;28;20110;-74
2024/02/22 06:54:45;;;;;;;57.20;27.13;;;;;;;-1.46;61.27;100124.03;5048145;28;20041;-74
2024/02/22 06:57:11;;;;;;;58.47;28.50;;;;;;;-1.53;61.56;100125.09;5048033;28;20021;-74
2024/02/22 06:59:36;;;;;;;56.13;28.05;;;;;;;-1.53;61.32;100125.09;5047130;28;20117;-73
2024/02/22 07:02:05;;;;;;;58.90;27.90;;;;;;;-1.46;62.05;100125.78;5048052;28;20037;-70
2024/02/22 07:04:30;;;;;;;62.08;27.75;;;;;;;-1.47;61.78;100132.81;5047550;28;20376;-60
2024/02/22 07:06:57;;;;;;;56.65;27.30;;;;;;;-1.70;61.00;100080.88;5048899;28;20033;-73
2024/02/22 07:09:23;;;;;;;64.93;28.48;;;;;;;-1.45;61.41;100125.75;5047524;28;20033;-68
2024/02/22 07:11:49;;;;;;;59.53;27.25;;;;;;;-1.47;61.40;100119.66;5050449;28;20040;-76
2024/02/22 07:14:14;;;;;;;62.47;27.05;;;;;;;-1.41;61.23;100113.41;5051405;28;20356;-76
2024/02/22 07:16:45;;;;;;;53.80;25.50;;;;;;;-1.39;60.77;100123.84;5051682;28;20041;-73
2024/02/22 07:19:11;;;;;;;56.30;28.42;;;;;;;-1.32;60.76;100143.81;5050582;28;20033;-72
2024/02/22 07:21:36;;;;;;;53.50;26.90;;;;;;;-1.46;60.93;100138.91;5051003;28;20059;-71
2024/02/22 07:24:03;;;;;;;53.15;26.15;;;;;;;-1.40;61.23;100136.13;5051093;28;20441;-71
2024/02/22 07:26:30;;;;;;;61.42;29.83;;;;;;;-1.47;60.95;100153.81;5051748;28;20468;-67
2024/02/22 07:28:57;;;;;;;52.78;26.92;;;;;;;-1.48;60.70;100127.56;5051659;28;20090;-73
2024/02/22 07:31:23;;;;;;;61.58;28.25;;;;;;;-1.48;61.41;100161.72;5051451;28;20036;-73
2024/02/22 07:33:48;;;;;;;56.58;27.70;;;;;;;-1.62;60.85;100102.56;5050526;28;20690;-75
2024/02/22 07:36:14;;;;;;;59.60;28.20;;;;;;;-1.42;61.10;100130.06;5049840;28;20028;-73
2024/02/22 07:38:42;;;;;;;56.47;27.95;;;;;;;-1.43;61.35;100138.84;5051726;27;20037;-74
2024/02/22 07:41:15;;;;;;;54.97;27.13;;;;;;;-1.52;61.38;100116.31;5051310;28;20040;-74
2024/02/22 07:43:41;;;;;;;57.72;28.75;;;;;;;-1.32;60.97;100144.66;5042991;28;20041;-74
2024/02/22 07:46:07;;;;;;;59.03;28.27;;;;;;;-1.33;61.47;100140.31;5051007;28;20040;-75
2024/02/22 07:48:33;;;;;;;54.90;27.73;;;;;;;-1.25;61.24;100150.63;5050824;28;20029;-73
2024/02/22 07:50:59;;;;;;;56.03;27.00;;;;;;;-1.48;60.88;100090.81;5051481;28;20041;-74
2024/02/22 07:53:25;;;;;;;60.13;27.73;;;;;;;-1.15;60.64;100159.13;5050511;28;20461;-73
2024/02/22 07:55:51;;;;;;;55.53;27.63;;;;;;;-1.12;60.41;100159.03;5050789;28;20133;-71
2024/02/22 07:58:18;;;;;;;62.80;26.60;;;;;;;-1.06;60.45;100155.41;5050701;28;20058;-75
2024/02/22 08:00:43;;;;;;;61.63;29.00;;;;;;;-1.07;60.46;100148.41;5050754;28;20512;-65
2024/02/22 08:03:09;;;;;;;55.58;27.67;;;;;;;-1.01;60.71;100146.47;5048976;28;20081;-72
2024/02/22 08:05:35;;;;;;;53.97;29.30;;;;;;;-0.92;60.80;100134.84;5049525;28;20037;-69
2024/02/22 08:08:00;;;;;;;59.42;27.70;;;;;;;-0.84;60.16;100139.88;5045012;28;20029;-69
2024/02/22 08:10:26;;;;;;;60.97;28.25;;;;;;;-0.66;59.78;100161.31;5051128;28;20032;-68
2024/02/22 08:12:51;;;;;;;64.20;27.92;;;;;;;-0.61;59.42;100159.41;5050395;27;20033;-69
2024/02/22 08:15:17;;;;;;;67.50;28.55;;;;;;;-0.53;59.26;100157.38;5050427;28;20121;-68
2024/02/22 08:17:43;;;;;;;60.17;29.73;;;;;;;-1.01;59.80;100083.38;5050518;28;20048;-68
2024/02/22 08:20:09;;;;;;;69.30;33.72;;;;;;;-0.60;59.47;100155.84;5045784;28;20580;-69
2024/02/22 08:22:36;;;;;;;65.18;31.15;;;;;;;-0.57;59.81;100145.25;5039995;28;20162;-68
2024/02/22 08:25:01;;;;;;;60.70;28.75;;;;;;;-0.54;59.82;100141.66;5037539;28;20034;-64
2024/02/22 08:27:27;;;;;;;57.72;27.13;;;;;;;-0.42;59.70;100153.59;5042209;28;20057;-69
2024/02/22 08:29:53;;;;;;;59.65;27.83;;;;;;;-0.62;59.34;100100.66;5050533;28;20033;-69
2024/02/22 08:32:18;;;;;;;57.95;28.08;;;;;;;-0.27;58.94;100153.13;5050804;28;20056;-70
2024/02/22 08:34:44;;;;;;;54.08;26.30;;;;;;;-0.57;58.79;100097.91;5049675;28;20029;-70
2024/02/22 08:37:09;;;;;;;58.90;28.25;;;;;;;-0.23;58.73;100157.41;5048897;27;20348;-69
2024/02/22 08:39:35;;;;;;;56.65;28.70;;;;;;;-0.37;59.24;100146.41;5049787;27;20036;-70
2024/02/22 08:42:03;;;;;;;59.45;28.85;;;;;;;-0.38;58.98;100150.81;5048875;28;20106;-65
2024/02/22 08:44:29;;;;;;;65.63;30.77;;;;;;;-0.37;59.27;100163.06;5048172;28;20033;-69
2024/02/22 08:46:55;;;;;;;57.35;27.83;;;;;;;-0.51;59.31;100145.06;5049374;27;20025;-68
2024/02/22 08:49:20;;;;;;;61.20;29.33;;;;;;;-0.67;59.88;100101.72;5048565;28;20036;-70
2024/02/22 08:51:46;;;;;;;62.05;29.75;;;;;;;-0.50;59.14;100127.50;5078193;28;20115;-73
2024/02/22 08:54:11;;;;;;;60.83;28.60;;;;;;;-0.45;59.43;100149.28;5112562;28;20047;-72
2024/02/22 08:56:37;;;;;;;61.08;29.70;;;;;;;-0.40;59.17;100154.41;5111677;28;20127;-63
2024/02/22 08:59:03;;;;;;;60.95;30.13;;;;;;;-0.41;59.15;100134.28;5112003;28;20102;-69
2024/02/22 09:01:31;;;;;;;62.78;28.35;;;;;;;-0.35;59.30;100147.22;5111920;28;20038;-70
2024/02/22 09:03:57;;;;;;;65.03;29.63;;;;;;;-0.31;59.11;100146.22;5097636;28;20043;-71
2024/02/22 09:06:23;;;;;;;60.20;29.17;;;;;;;-0.30;59.40;100147.94;5099319;28;20042;-72
2024/02/22 09:08:49;;;;;;;64.70;30.00;;;;;;;-0.66;59.11;100087.66;5113483;28;20136;-70
2024/02/22 09:11:14;;;;;;;59.13;29.25;;;;;;;-0.36;59.12;100132.34;5112721;28;20039;-70
2024/02/22 09:13:40;;;;;;;61.17;28.58;;;;;;;-0.24;59.05;100141.66;5113759;28;20452;-71
2024/02/22 09:16:08;;;;;;;60.90;29.50;;;;;;;-0.22;59.42;100142.47;5113905;28;20028;-71
2024/02/22 09:18:34;;;;;;;66.32;29.33;;;;;;;-0.26;58.71;100144.31;5113649;28;20039;-70
2024/02/22 09:21:00;;;;;;;62.28;29.13;;;;;;;-0.20;58.95;100148.53;5112890;28;20043;-69
2024/02/22 09:23:26;;;;;;;60.08;29.73;;;;;;;-0.12;58.47;100146.53;5113861;28;20413;-69
2024/02/22 09:25:52;;;;;;;59.00;29.63;;;;;;;-0.15;58.45;100144.84;5113940;28;20037;-71
2024/02/22 09:28:18;;;;;;;62.72;30.17;;;;;;;-0.15;58.91;100158.00;5114007;28;20031;-70
2024/02/22 09:30:43;;;;;;;67.18;30.52;;;;;;;-0.18;58.80;100139.69;5113372;28;20031;-71
2024/02/22 09:33:10;;;;;;;61.97;29.73;;;;;;;-0.24;59.34;100139.88;5113085;28;20024;-69
2024/02/22 09:35:36;;;;;;;63.45;29.35;;;;;;;-0.17;59.37;100141.41;5113468;28;20038;-71
2024/02/22 09:38:03;;;;;;;63.92;29.83;;;;;;;-0.26;59.21;100125.91;5111406;28;20038;-64
2024/02/22 09:40:29;;;;;;;61.45;29.90;;;;;;;-0.20;58.90;100127.47;5107834;28;20119;-68
2024/02/22 09:42:55;;;;;;;65.65;31.00;;;;;;;-0.44;59.06;100085.22;5113395;28;20165;-71
2024/02/22 09:45:20;;;;;;;67.28;32.28;;;;;;;-0.11;58.91;100136.88;5113056;27;20085;-65
2024/02/22 09:47:46;;;;;;;65.95;32.63;;;;;;;-0.10;59.06;100128.06;5112098;28;20405;-63
2024/02/22 09:50:12;;;;;;;64.15;31.25;;;;;;;-0.22;59.17;100124.03;5107430;28;20035;-64
2024/02/22 09:52:39;;;;;;;63.15;30.73;;;;;;;-0.08;59.31;100139.41;5057304;28;20141;-65
2024/02/22 09:55:05;;;;;;;68.63;32.33;;;;;;;-0.11;58.87;100142.13;5043622;28;20037;-67
2024/02/22 09:57:31;;;;;;;61.03;30.77;;;;;;;-0.19;59.19;100132.72;5032053;28;20084;-65
2024/02/22 09:59:58;;;;;;;66.13;31.98;;;;;;;-0.22;59.67;100138.06;5047806;28;20482;-64
2024/02/22 10:02:23;;;;;;;58.15;28.42;;;;;;;-0.24;59.63;100126.72;5048876;28;20402;-62
2024/02/22 10:04:53;;;;;;;56.80;29.50;;;;;;;-0.18;59.56;100116.00;5048846;28;20448;-64
2024/02/22 10:07:25;;;;;;;55.10;27.67;;;;;;;-0.01;59.66;100127.75;5048375;28;20068;-64
2024/02/22 10:09:53;;;;;;;60.65;29.90;;;;;;;-0.02;59.00;100131.28;5047980;28;20408;-63
2024/02/22 10:12:43;;;;;;;58.83;29.08;;;;;;;0.13;59.70;100127.34;5048374;27;20117;-64
2024/02/22 10:15:20;;;;;;;63.15;30.13;;;;;;;0.09;59.46;100129.19;5047943;27;20044;-69
2024/02/22 10:17:46;;;;;;;67.82;31.25;;;;;;;0.05;59.17;100146.00;5047145;28;20326;-66
2024/02/22 10:20:12;;;;;;;61.00;28.80;;;;;;;0.03;59.20;100134.66;5048075;28;20124;-64
2024/02/22 10:22:38;;;;;;;61.75;30.77;;;;;;;-0.08;59.21;100102.53;5048533;27;20113;-65
2024/02/22 10:25:12;;;;;;;64.80;29.77;;;;;;;0.14;59.22;100129.06;5047049;27;20040;-54
2024/02/22 10:27:41;;;;;;;63.03;30.55;;;;;;;0.21;58.81;100119.16;5048330;27;20326;-60
2024/02/22 10:30:10;;;;;;;55.97;30.65;;;;;;;0.25;59.36;100115.53;5048366;28;20485;-65
2024/02/22 10:32:40;;;;;;;61.15;29.13;;;;;;;0.32;59.10;100124.06;5046637;28;20441;-65
2024/02/22 10:35:08;;;;;;;58.70;30.48;;;;;;;0.31;58.92;100117.97;5028469;28;20056;-64
2024/02/22 10:37:34;;;;;;;61.95;29.20;;;;;;;0.31;58.45;100123.22;5036278;28;20029;-60
2024/02/22 10:40:03;;;;;;;59.70;30.42;;;;;;;0.22;59.12;100124.38;5028673;28;20037;-65
2024/02/22 10:42:30;;;;;;;58.75;30.48;;;;;;;0.06;58.57;100102.97;5032082;28;20051;-62
2024/02/22 10:44:56;;;;;;;61.97;30.15;;;;;;;0.09;59.24;100125.69;5038993;28;20353;-69
2024/02/22 10:47:22;;;;;;;58.25;29.23;;;;;;;-0.03;59.03;100116.41;5050060;28;20033;-66
2024/02/22 10:49:48;;;;;;;63.38;30.33;;;;;;;-0.03;59.15;100096.22;5050326;28;20025;-67
2024/02/22 10:52:18;;;;;;;61.53;31.05;;;;;;;0.06;59.51;100112.63;5051244;28;20093;-63
2024/02/22 10:54:51;;;;;;;56.05;27.83;;;;;;;0.07;58.98;100099.44;5048000;28;20059;-67
2024/02/22 10:57:18;;;;;;;64.15;31.33;;;;;;;-0.08;59.09;100120.97;5051936;28;20512;-67
2024/02/22 10:59:45;;;;;;;59.88;29.42;;;;;;;-0.28;60.06;100113.72;5051254;28;20035;-66
2024/02/22 11:02:12;;;;;;;52.20;29.80;;;;;;;-0.26;60.14;100127.69;5050806;28;20041;-65
2024/02/22 11:04:38;;;;;;;43.53;20.27;;;;;;;-0.09;59.54;100114.84;5047881;28;20025;-67
2024/02/22 11:07:06;;;;;;;57.15;29.65;;;;;;;-0.52;59.90;100053.91;5052101;28;20495;-70